Time;durP1;ratioP1;P1;durP2;ratioP2;P2;SDS_P1;SDS_P2;PMS_P1;PMS_P2;Temp;Humidity;BMP_temperature;BMP_pressure;BME280_temperature;BME280_humidity;BME280_pressure;Samples;Min_cycle;Max_cycle;Signal;HPM_P1;HPM_P2
2021/01/05 00:00:18;;;;;;;;;;;;;;;4.32;87.05;101779.42;1728063;82;20475;-73
2021/01/05 00:02:52;;;;;;;;;;;;;;;4.29;87.08;101785.33;1723783;82;20227;-72
2021/01/05 00:05:23;;;;;;;;;;;;;;;4.24;86.90;101774.05;1727921;82;20938;-73
2021/01/05 00:07:55;;;;;;;;;;;;;;;4.25;86.96;101782.11;1708672;82;20548;-73
2021/01/05 00:10:26;;;;;;;;;;;;;;;4.20;86.86;101778.22;1727488;82;20190;-73
2021/01/05 00:12:58;;;;;;;;;;;;;;;4.17;86.89;101781.36;1720834;82;20194;-73
2021/01/05 00:15:30;;;;;;;;;;;;;;;4.14;86.92;101781.73;1721956;82;20225;-73
2021/01/05 00:18:02;;;;;;;;;;;;;;;4.11;86.87;101790.38;1722026;82;20183;-74
2021/01/05 00:20:33;;;;;;;;;;;;;;;4.08;86.85;101783.88;1713612;82;20267;-73
2021/01/05 00:23:07;;;;;;;;;;;;;;;4.04;86.93;101793.56;1722611;82;20227;-74
2021/01/05 00:25:38;;;;;;;;;;;;;;;4.02;86.94;101784.64;1715692;82;20247;-72
2021/01/05 00:28:10;;;;;;;;;;;;;;;4.05;87.10;101778.27;1728324;82;20393;-73
2021/01/05 00:30:42;;;;;;;;;;;;;;;4.12;87.18;101778.34;1715573;82;20654;-73
2021/01/05 00:33:14;;;;;;;;;;;;;;;4.15;86.88;101775.22;1717713;82;20525;-72
2021/01/05 00:35:45;;;;;;;;;;;;;;;4.12;86.72;101777.83;1743965;82;20253;-73
2021/01/05 00:38:18;;;;;;;;;;;;;;;4.10;86.66;101773.02;1733393;82;20593;-75
2021/01/05 00:40:50;;;;;;;;;;;;;;;4.14;86.67;101776.23;1714234;82;20190;-73
2021/01/05 00:43:22;;;;;;;;;;;;;;;4.15;86.61;101758.73;1724237;82;20236;-73
2021/01/05 00:45:53;;;;;;;;;;;;;;;4.16;86.55;101753.02;1703665;82;20222;-73
2021/01/05 00:48:25;;;;;;;;;;;;;;;4.16;86.39;101757.69;1742446;82;20594;-73
2021/01/05 00:50:56;;;;;;;;;;;;;;;4.16;86.35;101761.81;1720708;82;20306;-71
2021/01/05 00:53:28;;;;;;;;;;;;;;;4.19;86.29;101741.66;1705750;83;20214;-73
2021/01/05 00:56:00;;;;;;;;;;;;;;;4.26;86.23;101746.70;1732279;81;20259;-73
2021/01/05 00:58:32;;;;;;;;;;;;;;;4.28;86.03;101747.89;1741179;82;20256;-74
2021/01/05 01:01:04;;;;;;;;;;;;;;;4.28;85.75;101739.66;1723352;82;20221;-73
2021/01/05 01:03:35;;;;;;;;;;;;;;;4.27;85.60;101731.91;1757360;81;20248;-72
2021/01/05 01:06:07;;;;;;;;;;;;;;;4.30;85.65;101721.92;1781974;79;20297;-74
2021/01/05 01:08:39;;;;;;;;;;;;;;;4.33;85.56;101718.77;1772354;79;20194;-72
2021/01/05 01:11:11;;;;;;;;;;;;;;;4.36;85.42;101706.54;1805790;79;20288;-72
2021/01/05 01:13:43;;;;;;;;;;;;;;;4.34;85.26;101701.77;1799423;79;20177;-72
2021/01/05 01:16:15;;;;;;;;;;;;;;;4.31;85.19;101699.40;1807603;79;20260;-72
2021/01/05 01:18:47;;;;;;;;;;;;;;;4.32;85.41;101703.84;1805320;79;20248;-73
2021/01/05 01:21:19;;;;;;;;;;;;;;;4.34;85.39;101694.36;1801080;79;20174;-72
2021/01/05 01:23:51;;;;;;;;;;;;;;;4.36;85.49;101695.55;1807355;79;20181;-73
2021/01/05 01:26:22;;;;;;;;;;;;;;;4.39;85.45;101685.55;1802011;79;20316;-73
2021/01/05 01:28:54;;;;;;;;;;;;;;;4.35;85.36;101674.61;1770866;79;20174;-73
2021/01/05 01:31:27;;;;;;;;;;;;;;;4.31;85.50;101664.53;1799163;79;20253;-74
2021/01/05 01:33:59;;;;;;;;;;;;;;;4.30;85.66;101663.34;1774757;79;20217;-72
2021/01/05 01:36:31;;;;;;;;;;;;;;;4.25;85.86;101650.20;1805565;79;20291;-72
2021/01/05 01:39:03;;;;;;;;;;;;;;;4.22;86.06;101656.08;1802008;79;20257;-73
2021/01/05 01:41:36;;;;;;;;;;;;;;;4.21;86.28;101660.41;1774421;79;20182;-72
2021/01/05 01:44:07;;;;;;;;;;;;;;;4.23;86.51;101650.06;1770453;79;20174;-72
2021/01/05 01:46:39;;;;;;;;;;;;;;;4.24;86.82;101654.00;1770726;80;20340;-71
2021/01/05 01:49:11;;;;;;;;;;;;;;;4.28;86.99;101642.09;1778341;80;20610;-73
2021/01/05 01:51:42;;;;;;;;;;;;;;;4.29;87.12;101652.03;1786260;79;20273;-73
2021/01/05 01:54:41;;;;;;;;;;;;;;;4.29;87.35;101658.91;1755266;81;20534;-73
2021/01/05 01:57:48;;;;;;;;;;;;;;;4.31;87.42;101648.55;1750862;81;20582;-72
2021/01/05 02:00:32;;;;;;;;;;;;;;;4.31;87.68;101643.92;1763993;81;20541;-73
2021/01/05 02:03:38;;;;;;;;;;;;;;;4.33;87.76;101643.73;1770574;80;20173;-72
2021/01/05 02:06:18;;;;;;;;;;;;;;;4.35;87.92;101639.71;1774837;80;20185;-73
2021/01/05 02:08:56;;;;;;;;;;;;;;;4.35;88.13;101627.89;1722405;81;20172;-73
2021/01/05 02:11:57;;;;;;;;;;;;;;;4.32;88.20;101618.13;1748986;80;20191;-73
2021/01/05 02:14:54;;;;;;;;;;;;;;;4.32;88.42;101621.39;1754366;80;20176;-73
2021/01/05 02:17:41;;;;;;;;;;;;;;;4.33;88.60;101617.08;1769546;80;20232;-73
2021/01/05 02:20:20;;;;;;;;;;;;;;;4.36;88.83;101620.83;1768069;81;20510;-73
2021/01/05 02:23:18;;;;;;;;;;;;;;;4.37;89.04;101620.28;1761910;80;20184;-72
2021/01/05 02:26:09;;;;;;;;;;;;;;;4.39;89.30;101608.59;1773676;81;20295;-73
2021/01/05 02:28:47;;;;;;;;;;;;;;;4.38;89.33;101597.23;1707198;80;20272;-72
2021/01/05 02:31:58;;;;;;;;;;;;;;;4.36;89.62;101593.34;1747532;81;20267;-72
2021/01/05 02:34:55;;;;;;;;;;;;;;;4.39;89.91;101592.09;1738453;80;20176;-72
2021/01/05 02:37:34;;;;;;;;;;;;;;;4.44;90.36;101596.45;1713650;81;20191;-73
2021/01/05 02:40:38;;;;;;;;;;;;;;;4.49;90.71;101600.83;1761734;81;20526;-72
2021/01/05 02:43:33;;;;;;;;;;;;;;;4.49;90.82;101596.70;1720331;81;20633;-72
2021/01/05 02:46:41;;;;;;;;;;;;;;;4.46;90.81;101597.95;1774512;79;20255;-73
2021/01/05 02:49:39;;;;;;;;;;;;;;;4.46;91.01;101593.83;1785200;79;20217;-72
2021/01/05 02:52:51;;;;;;;;;;;;;;;4.49;91.30;101584.34;1800401;79;20233;-71
2021/01/05 02:56:18;;;;;;;;;;;;;;;4.47;91.34;101584.53;1777592;79;20216;-73
2021/01/05 02:59:27;;;;;;;;;;;;;;;4.47;91.40;101590.57;1765060;81;20263;-72
2021/01/05 03:02:42;;;;;;;;;;;;;;;4.38;91.36;101582.13;1769053;81;20299;-72
2021/01/05 03:05:31;;;;;;;;;;;;;;;4.37;91.75;101575.80;1746881;81;20188;-72
2021/01/05 03:08:22;;;;;;;;;;;;;;;4.36;91.85;101563.62;1756455;81;20327;-72
2021/01/05 03:11:13;;;;;;;;;;;;;;;4.32;91.80;101569.17;1747205;81;20187;-73
2021/01/05 03:14:25;;;;;;;;;;;;;;;4.31;91.95;101560.61;1740507;80;20183;-72
2021/01/05 03:17:35;;;;;;;;;;;;;;;4.33;92.16;101555.79;1727242;80;20184;-72
2021/01/05 03:20:43;;;;;;;;;;;;;;;4.36;92.33;101549.37;1773529;80;20296;-73
2021/01/05 03:23:33;;;;;;;;;;;;;;;4.39;92.46;101544.83;1778120;80;20595;-74
2021/01/05 03:26:24;;;;;;;;;;;;;;;4.41;92.49;101549.59;1771629;79;20582;-75
2021/01/05 03:29:16;;;;;;;;;;;;;;;4.42;92.50;101562.31;1714697;82;20192;-73
2021/01/05 03:32:09;;;;;;;;;;;;;;;4.49;92.67;101573.34;1650677;86;20198;-73
2021/01/05 03:34:59;;;;;;;;;;;;;;;4.51;92.73;101556.97;1698890;82;20234;-72
2021/01/05 03:37:48;;;;;;;;;;;;;;;4.54;92.69;101554.35;1759254;79;20225;-73
2021/01/05 03:40:37;;;;;;;;;;;;;;;4.56;92.72;101554.48;1771713;80;20280;-72
2021/01/05 03:43:29;;;;;;;;;;;;;;;4.58;92.79;101561.16;1771538;81;20277;-72
2021/01/05 03:46:18;;;;;;;;;;;;;;;4.63;92.86;101562.76;1771529;81;20221;-73
2021/01/05 03:49:08;;;;;;;;;;;;;;;4.64;92.80;101562.56;1769493;81;20254;-73
2021/01/05 03:51:57;;;;;;;;;;;;;;;4.67;92.81;101564.93;1775860;80;20233;-74
2021/01/05 03:54:47;;;;;;;;;;;;;;;4.73;92.83;101577.02;1772844;80;20237;-72
2021/01/05 03:57:36;;;;;;;;;;;;;;;4.74;92.69;101573.20;1772675;80;20265;-72
2021/01/05 04:00:29;;;;;;;;;;;;;;;4.74;92.60;101588.33;1772183;80;20189;-74
2021/01/05 04:03:02;;;;;;;;;;;;;;;4.77;92.63;101571.45;1770976;80;20181;-72
2021/01/05 04:05:33;;;;;;;;;;;;;;;4.76;92.53;101592.59;1768083;80;20194;-71
2021/01/05 04:08:05;;;;;;;;;;;;;;;4.75;92.53;101563.90;1774364;80;20221;-73
2021/01/05 04:10:38;;;;;;;;;;;;;;;4.77;92.57;101590.16;1774203;80;20189;-73
2021/01/05 04:13:09;;;;;;;;;;;;;;;4.76;92.50;101567.00;1772432;80;20182;-72
2021/01/05 04:15:41;;;;;;;;;;;;;;;4.80;92.59;101572.41;1773393;81;20174;-74
2021/01/05 04:18:12;;;;;;;;;;;;;;;4.84;92.60;101591.05;1773393;80;20566;-78
2021/01/05 04:20:44;;;;;;;;;;;;;;;4.85;92.47;101580.91;1773047;80;20173;-81
2021/01/05 04:23:16;;;;;;;;;;;;;;;4.88;92.49;101565.39;1775610;80;20212;-81
2021/01/05 04:25:48;;;;;;;;;;;;;;;4.95;92.46;101563.52;1774812;80;20189;-75
2021/01/05 04:28:19;;;;;;;;;;;;;;;4.99;92.35;101564.28;1776009;80;20177;-76
2021/01/05 04:30:51;;;;;;;;;;;;;;;5.04;92.24;101557.66;1777455;80;20524;-76
2021/01/05 04:33:22;;;;;;;;;;;;;;;5.07;92.08;101566.03;1774178;79;20584;-76
2021/01/05 04:35:54;;;;;;;;;;;;;;;5.09;91.92;101571.66;1770450;80;20318;-76
2021/01/05 04:38:30;;;;;;;;;;;;;;;5.12;91.76;101564.90;1783411;79;20182;-76
2021/01/05 04:41:01;;;;;;;;;;;;;;;5.16;91.67;101567.03;1798748;79;20204;-76
2021/01/05 04:43:39;;;;;;;;;;;;;;;5.20;91.59;101550.95;1796676;79;20635;-78
2021/01/05 04:46:20;;;;;;;;;;;;;;;5.24;91.51;101548.09;1750811;80;20188;-77
2021/01/05 04:49:03;;;;;;;;;;;;;;;5.28;91.33;101560.41;1752780;80;20214;-76
2021/01/05 04:51:47;;;;;;;;;;;;;;;5.31;91.09;101551.20;1698042;81;20256;-79
2021/01/05 04:54:33;;;;;;;;;;;;;;;5.33;90.94;101556.52;1748514;80;20183;-77
2021/01/05 04:57:14;;;;;;;;;;;;;;;5.36;90.80;101575.36;1760156;81;20207;-76
2021/01/05 04:59:50;;;;;;;;;;;;;;;5.37;90.57;101564.70;1747087;80;20192;-73
2021/01/05 05:02:37;;;;;;;;;;;;;;;5.37;90.40;101553.69;1764152;80;20183;-73
2021/01/05 05:05:27;;;;;;;;;;;;;;;5.42;90.32;101552.00;1774067;81;20206;-75
2021/01/05 05:08:08;;;;;;;;;;;;;;;5.45;90.18;101546.61;1717574;81;20586;-74
2021/01/05 05:10:45;;;;;;;;;;;;;;;5.48;89.97;101522.77;1752173;80;20180;-74
2021/01/05 05:13:53;;;;;;;;;;;;;;;5.50;89.94;101525.64;1677608;83;20514;-74
2021/01/05 05:16:57;;;;;;;;;;;;;;;5.53;89.76;101520.25;1704178;84;20260;-74
2021/01/05 05:19:35;;;;;;;;;;;;;;;5.51;89.61;101533.39;1714656;82;20267;-73
2021/01/05 05:22:26;;;;;;;;;;;;;;;5.51;89.58;101526.51;1676033;84;20219;-74
2021/01/05 05:25:18;;;;;;;;;;;;;;;5.51;89.43;101523.21;1687665;84;20526;-74
2021/01/05 05:27:54;;;;;;;;;;;;;;;5.52;89.30;101543.34;1703868;84;20180;-74
2021/01/05 05:30:34;;;;;;;;;;;;;;;5.52;89.18;101533.70;1698793;84;20401;-74
2021/01/05 05:33:17;;;;;;;;;;;;;;;5.54;89.12;101560.50;1692872;84;20538;-74
2021/01/05 05:35:58;;;;;;;;;;;;;;;5.56;89.08;101548.77;1721093;82;20234;-74
2021/01/05 05:38:45;;;;;;;;;;;;;;;5.56;88.95;101540.52;1669051;84;20220;-74
2021/01/05 05:41:35;;;;;;;;;;;;;;;5.57;88.93;101555.42;1688536;84;20223;-75
2021/01/05 05:44:19;;;;;;;;;;;;;;;5.60;88.91;101573.45;1720725;82;20628;-74
2021/01/05 05:46:57;;;;;;;;;;;;;;;5.64;88.88;101554.95;1721960;82;20222;-74
2021/01/05 05:49:32;;;;;;;;;;;;;;;5.68;88.72;101558.13;1689864;83;20204;-74
2021/01/05 05:52:05;;;;;;;;;;;;;;;5.68;88.57;101549.32;1686173;82;20261;-75
2021/01/05 05:54:37;;;;;;;;;;;;;;;5.69;88.37;101537.24;1727965;82;20268;-74
2021/01/05 05:57:15;;;;;;;;;;;;;;;5.70;88.30;101546.38;1736635;82;20260;-73
2021/01/05 05:59:50;;;;;;;;;;;;;;;5.71;88.20;101539.28;1733226;81;20245;-73
2021/01/05 06:02:22;;;;;;;;;;;;;;;5.72;88.10;101544.25;1737352;82;20232;-74
2021/01/05 06:04:58;;;;;;;;;;;;;;;5.77;88.05;101555.49;1751982;81;20452;-74
2021/01/05 06:07:30;;;;;;;;;;;;;;;5.77;87.89;101538.45;1735972;80;20207;-74
2021/01/05 06:10:01;;;;;;;;;;;;;;;5.78;87.81;101564.08;1784217;79;20254;-73
2021/01/05 06:12:33;;;;;;;;;;;;;;;5.79;87.72;101558.36;1774310;79;20293;-74
2021/01/05 06:15:06;;;;;;;;;;;;;;;5.78;87.65;101564.94;1770429;80;20227;-75
2021/01/05 06:17:37;;;;;;;;;;;;;;;5.80;87.53;101586.81;1755961;80;20223;-76
2021/01/05 06:20:09;;;;;;;;;;;;;;;5.77;87.37;101564.63;1767425;80;20232;-75
2021/01/05 06:22:41;;;;;;;;;;;;;;;5.76;87.33;101577.22;1776017;80;20183;-75
2021/01/05 06:25:13;;;;;;;;;;;;;;;5.76;87.30;101571.19;1774122;81;20290;-75
2021/01/05 06:27:45;;;;;;;;;;;;;;;5.76;87.35;101584.97;1740100;80;20188;-74
2021/01/05 06:30:17;;;;;;;;;;;;;;;5.77;87.39;101566.00;1769811;80;20189;-75
2021/01/05 06:32:49;;;;;;;;;;;;;;;5.81;87.34;101565.09;1752088;80;20246;-76
2021/01/05 06:35:22;;;;;;;;;;;;;;;5.85;87.27;101555.33;1776085;80;20240;-76
2021/01/05 06:37:54;;;;;;;;;;;;;;;5.87;87.15;101560.95;1769708;80;20220;-77
2021/01/05 06:40:27;;;;;;;;;;;;;;;5.83;87.00;101575.36;1774781;79;20190;-75
2021/01/05 06:42:58;;;;;;;;;;;;;;;5.80;86.94;101556.50;1780117;79;20178;-75
2021/01/05 06:45:31;;;;;;;;;;;;;;;5.76;86.90;101548.30;1777140;79;20583;-75
2021/01/05 06:48:03;;;;;;;;;;;;;;;5.74;86.91;101584.30;1784358;79;20292;-75
2021/01/05 06:50:35;;;;;;;;;;;;;;;5.71;86.94;101572.85;1785044;79;20268;-75
2021/01/05 06:53:07;;;;;;;;;;;;;;;5.69;87.00;101553.77;1805902;79;20221;-78
2021/01/05 06:55:38;;;;;;;;;;;;;;;5.70;87.11;101605.59;1786084;79;20273;-75
2021/01/05 06:58:09;;;;;;;;;;;;;;;5.67;87.00;101557.82;1784810;79;20206;-75
2021/01/05 07:00:41;;;;;;;;;;;;;;;5.66;87.05;101561.09;1771638;79;20598;-75
2021/01/05 07:03:12;;;;;;;;;;;;;;;5.68;87.02;101556.75;1752524;80;20194;-75
2021/01/05 07:05:44;;;;;;;;;;;;;;;5.68;87.01;101564.47;1785557;79;20190;-76
2021/01/05 07:08:16;;;;;;;;;;;;;;;5.69;86.98;101551.56;1791915;79;20186;-75
2021/01/05 07:10:48;;;;;;;;;;;;;;;5.72;86.92;101552.51;1781651;79;20206;-76
2021/01/05 07:13:19;;;;;;;;;;;;;;;5.75;86.69;101559.83;1775965;79;20221;-76
2021/01/05 07:15:51;;;;;;;;;;;;;;;5.77;86.52;101563.24;1787061;79;20583;-76
2021/01/05 07:18:23;;;;;;;;;;;;;;;5.80;86.39;101555.13;1793342;79;20295;-77
2021/01/05 07:20:56;;;;;;;;;;;;;;;5.85;86.38;101542.41;1770702;79;20272;-76
2021/01/05 07:23:28;;;;;;;;;;;;;;;5.87;86.38;101538.91;1780297;79;20185;-77
2021/01/05 07:25:59;;;;;;;;;;;;;;;5.85;86.39;101536.91;1805593;79;20288;-77
2021/01/05 07:28:31;;;;;;;;;;;;;;;5.82;86.50;101564.02;1782555;79;20189;-77
2021/01/05 07:31:03;;;;;;;;;;;;;;;5.81;86.67;101548.01;1782217;79;20216;-77
2021/01/05 07:33:37;;;;;;;;;;;;;;;5.79;86.70;101546.48;1803640;79;20248;-80
2021/01/05 07:36:25;;;;;;;;;;;;;;;5.76;86.66;101544.16;1787381;79;20419;-75
2021/01/05 07:38:57;;;;;;;;;;;;;;;5.74;86.57;101542.98;1806576;79;20257;-76
2021/01/05 07:41:29;;;;;;;;;;;;;;;5.74;86.71;101578.80;1805805;79;20261;-75
2021/01/05 07:44:01;;;;;;;;;;;;;;;5.75;86.73;101561.75;1801643;79;20275;-76
2021/01/05 07:46:34;;;;;;;;;;;;;;;5.72;86.53;101538.73;1786114;79;20262;-78
2021/01/05 07:49:06;;;;;;;;;;;;;;;5.76;86.59;101531.77;1804557;79;20254;-76
2021/01/05 07:51:37;;;;;;;;;;;;;;;5.76;86.66;101542.27;1782764;79;20218;-77
2021/01/05 07:54:09;;;;;;;;;;;;;;;5.78;86.70;101537.91;1801105;79;20970;-77
2021/01/05 07:56:45;;;;;;;;;;;;;;;5.79;86.79;101518.42;1758503;80;20285;-75
2021/01/05 07:59:18;;;;;;;;;;;;;;;5.82;86.76;101508.92;1757222;80;20219;-74
2021/01/05 08:01:49;;;;;;;;;;;;;;;5.80;86.73;101509.13;1766379;80;20619;-74
2021/01/05 08:04:21;;;;;;;;;;;;;;;5.81;86.79;101527.89;1790327;79;20536;-75
2021/01/05 08:06:53;;;;;;;;;;;;;;;5.81;86.72;101530.65;1807266;79;20580;-77
2021/01/05 08:09:25;;;;;;;;;;;;;;;5.80;86.77;101526.20;1803775;79;20221;-77
2021/01/05 08:11:56;;;;;;;;;;;;;;;5.82;86.82;101519.94;1775182;79;20254;-77
2021/01/05 08:14:28;;;;;;;;;;;;;;;5.85;86.80;101518.98;1761191;79;20558;-76
2021/01/05 08:17:00;;;;;;;;;;;;;;;5.87;86.63;101508.59;1776114;80;20605;-77
2021/01/05 08:19:31;;;;;;;;;;;;;;;5.87;86.44;101502.26;1775690;80;20510;-76
2021/01/05 08:22:03;;;;;;;;;;;;;;;5.84;86.35;101498.02;1768986;80;20287;-76
2021/01/05 08:24:35;;;;;;;;;;;;;;;5.85;86.55;101498.33;1763260;80;20517;-76
2021/01/05 08:27:08;;;;;;;;;;;;;;;5.84;86.71;101561.38;1782601;79;20603;-75
2021/01/05 08:29:42;;;;;;;;;;;;;;;5.77;86.39;101527.95;1768849;79;20196;-75
2021/01/05 08:32:13;;;;;;;;;;;;;;;5.69;86.39;101536.41;1762826;80;20260;-76
2021/01/05 08:34:46;;;;;;;;;;;;;;;5.66;86.64;101533.55;1771855;80;20317;-75
2021/01/05 08:37:18;;;;;;;;;;;;;;;5.70;86.82;101535.34;1761397;79;20265;-75
2021/01/05 08:39:49;;;;;;;;;;;;;;;5.73;86.74;101530.27;1770270;79;20258;-78
2021/01/05 08:42:22;;;;;;;;;;;;;;;5.78;86.62;101536.02;1783186;79;20583;-74
2021/01/05 08:44:53;;;;;;;;;;;;;;;5.80;86.54;101511.05;1771040;79;20253;-75
2021/01/05 08:47:25;;;;;;;;;;;;;;;5.80;86.67;101520.14;1775672;79;20250;-78
2021/01/05 08:49:56;;;;;;;;;;;;;;;5.76;86.74;101525.73;1795579;78;20233;-76
2021/01/05 08:52:28;;;;;;;;;;;;;;;5.73;86.76;101522.01;1769533;79;20265;-76
2021/01/05 08:54:59;;;;;;;;;;;;;;;5.72;86.80;101488.64;1774068;80;20598;-76
2021/01/05 08:57:31;;;;;;;;;;;;;;;5.67;86.76;101497.22;1780654;80;20180;-77
2021/01/05 09:00:05;;;;;;;;;;;;;;;5.67;86.81;101493.09;1770414;80;20259;-76
2021/01/05 09:02:37;;;;;;;;;;;;;;;5.69;86.89;101500.61;1749146;80;21047;-76
2021/01/05 09:05:14;;;;;;;;;;;;;;;5.69;87.07;101506.11;1755217;80;20239;-75
2021/01/05 09:07:47;;;;;;;;;;;;;;;5.67;87.14;101494.47;1774748;79;20493;-76
2021/01/05 09:10:24;;;;;;;;;;;;;;;5.65;87.25;101516.70;1771720;80;20602;-76
2021/01/05 09:12:56;;;;;;;;;;;;;;;5.65;87.15;101503.45;1760451;81;20538;-76
2021/01/05 09:15:33;;;;;;;;;;;;;;;5.66;87.24;101489.98;1770993;80;20587;-75
2021/01/05 09:18:06;;;;;;;;;;;;;;;5.68;87.36;101482.39;1760802;80;20184;-75
2021/01/05 09:20:39;;;;;;;;;;;;;;;5.73;87.45;101483.98;1764692;80;20561;-76
2021/01/05 09:23:10;;;;;;;;;;;;;;;5.74;87.38;101490.64;1778305;80;20260;-76
2021/01/05 09:25:44;;;;;;;;;;;;;;;5.76;87.40;101478.91;1770008;80;20626;-78
2021/01/05 09:28:16;;;;;;;;;;;;;;;5.77;87.42;101483.87;1767596;80;20597;-77
2021/01/05 09:30:48;;;;;;;;;;;;;;;5.76;87.39;101483.05;1800284;79;20254;-75
2021/01/05 09:33:20;;;;;;;;;;;;;;;5.73;87.49;101495.02;1786158;79;20250;-76
2021/01/05 09:35:53;;;;;;;;;;;;;;;5.69;87.60;101493.17;1786284;79;20258;-75
2021/01/05 09:38:24;;;;;;;;;;;;;;;5.71;87.79;101491.59;1790794;79;20181;-76
2021/01/05 09:40:56;;;;;;;;;;;;;;;5.77;87.92;101494.37;1792140;79;20189;-77
2021/01/05 09:43:30;;;;;;;;;;;;;;;5.84;87.94;101490.27;1799529;79;20252;-75
2021/01/05 09:46:02;;;;;;;;;;;;;;;5.86;87.74;101486.24;1786240;79;20278;-75
2021/01/05 09:48:35;;;;;;;;;;;;;;;5.88;87.59;101495.17;1801199;79;20567;-77
2021/01/05 09:51:08;;;;;;;;;;;;;;;5.90;87.55;101496.31;1775221;79;20894;-77
2021/01/05 09:53:40;;;;;;;;;;;;;;;5.87;87.53;101492.62;1769394;80;20191;-78
2021/01/05 09:56:15;;;;;;;;;;;;;;;5.83;87.62;101475.66;1768715;81;20288;-75
2021/01/05 09:58:47;;;;;;;;;;;;;;;5.84;87.70;101469.60;1752918;80;20321;-75
2021/01/05 10:01:28;;;;;;;;;;;;;;;5.82;87.57;101491.02;1751130;81;20280;-77
2021/01/05 10:04:00;;;;;;;;;;;;;;;5.73;87.44;101470.22;1753387;81;20203;-76
2021/01/05 10:06:33;;;;;;;;;;;;;;;5.67;87.55;101478.77;1774053;80;20184;-76
2021/01/05 10:09:08;;;;;;;;;;;;;;;5.65;87.63;101485.03;1757727;80;20207;-76
2021/01/05 10:11:43;;;;;;;;;;;;;;;5.63;87.74;101469.77;1774642;81;20195;-77
2021/01/05 10:14:16;;;;;;;;;;;;;;;5.61;87.93;101460.33;1751044;80;20232;-79
2021/01/05 10:16:55;;;;;;;;;;;;;;;5.63;88.09;101461.50;1761151;81;20173;-76
2021/01/05 10:19:27;;;;;;;;;;;;;;;5.68;88.23;101447.41;1742610;81;20172;-77
2021/01/05 10:21:59;;;;;;;;;;;;;;;5.74;88.26;101455.38;1759865;80;20184;-77
2021/01/05 10:24:32;;;;;;;;;;;;;;;5.80;88.25;101460.08;1757545;81;20187;-77
2021/01/05 10:27:04;;;;;;;;;;;;;;;5.81;88.17;101449.38;1748716;80;20526;-77
2021/01/05 10:29:36;;;;;;;;;;;;;;;5.84;88.12;101459.95;1757936;80;20243;-78
2021/01/05 10:32:07;;;;;;;;;;;;;;;5.83;88.12;101447.25;1751283;80;20331;-76
2021/01/05 10:34:39;;;;;;;;;;;;;;;5.84;88.17;101437.92;1775104;80;20259;-76
2021/01/05 10:37:12;;;;;;;;;;;;;;;5.82;88.16;101473.11;1775541;80;20242;-76
2021/01/05 10:39:43;;;;;;;;;;;;;;;5.77;88.21;101424.13;1759447;80;20180;-76
2021/01/05 10:42:15;;;;;;;;;;;;;;;5.78;88.37;101439.59;1772088;81;20271;-75
2021/01/05 10:44:48;;;;;;;;;;;;;;;5.77;88.52;101414.48;1745352;80;20180;-76
2021/01/05 10:47:19;;;;;;;;;;;;;;;5.78;88.74;101416.69;1772386;80;20184;-75
2021/01/05 10:49:51;;;;;;;;;;;;;;;5.83;88.88;101411.44;1770793;81;20187;-76
2021/01/05 10:52:23;;;;;;;;;;;;;;;5.83;88.83;101437.61;1759093;81;20348;-75
2021/01/05 10:54:55;;;;;;;;;;;;;;;5.78;88.84;101419.45;1750527;80;20267;-74
2021/01/05 10:57:26;;;;;;;;;;;;;;;5.74;88.98;101424.53;1751767;81;20522;-75
2021/01/05 10:59:58;;;;;;;;;;;;;;;5.73;89.15;101428.90;1760052;80;20184;-76
2021/01/05 11:02:29;;;;;;;;;;;;;;;5.70;89.20;101419.15;1760268;81;20184;-75
2021/01/05 11:05:04;;;;;;;;;;;;;;;5.68;89.43;101406.64;1771622;80;20220;-74
2021/01/05 11:07:36;;;;;;;;;;;;;;;5.66;89.70;101393.08;1776396;80;20223;-75
2021/01/05 11:10:09;;;;;;;;;;;;;;;5.69;89.89;101387.13;1772340;80;20176;-75
2021/01/05 11:12:57;;;;;;;;;;;;;;;5.68;89.92;101406.09;1763235;80;20227;-77
2021/01/05 11:15:31;;;;;;;;;;;;;;;5.69;90.05;101391.81;1771869;80;20518;-74
2021/01/05 11:18:03;;;;;;;;;;;;;;;5.72;90.10;101389.98;1773045;80;20214;-75
2021/01/05 11:20:36;;;;;;;;;;;;;;;5.72;90.16;101395.50;1743410;81;20613;-75
2021/01/05 11:23:08;;;;;;;;;;;;;;;5.75;90.26;101399.23;1764741;80;20673;-77
2021/01/05 11:25:40;;;;;;;;;;;;;;;5.76;90.30;101392.13;1770887;79;20174;-77
2021/01/05 11:28:12;;;;;;;;;;;;;;;5.80;90.35;101368.63;1772012;80;20524;-75
2021/01/05 11:30:44;;;;;;;;;;;;;;;5.85;90.29;101369.35;1773131;79;20209;-77
2021/01/05 11:33:15;;;;;;;;;;;;;;;5.90;90.27;101376.45;1776098;80;20193;-75
2021/01/05 11:35:47;;;;;;;;;;;;;;;5.94;90.15;101396.50;1774868;80;20186;-75
2021/01/05 11:38:19;;;;;;;;;;;;;;;5.95;89.96;101412.48;1774099;81;20224;-77
2021/01/05 11:40:50;;;;;;;;;;;;;;;5.95;89.87;101387.69;1777061;79;20291;-78
2021/01/05 11:43:22;;;;;;;;;;;;;;;5.92;89.77;101386.20;1778292;79;20180;-76
2021/01/05 11:45:54;;;;;;;;;;;;;;;5.92;89.75;101374.36;1771455;79;20345;-75
2021/01/05 11:48:25;;;;;;;;;;;;;;;5.90;89.80;101376.45;1771800;80;20190;-77
2021/01/05 11:51:02;;;;;;;;;;;;;;;5.92;89.93;101371.59;1777230;79;20296;-77
2021/01/05 11:53:33;;;;;;;;;;;;;;;5.94;89.89;101373.60;1786560;79;20255;-75
2021/01/05 11:56:05;;;;;;;;;;;;;;;5.92;89.90;101372.43;1772564;79;20839;-76
2021/01/05 11:58:37;;;;;;;;;;;;;;;5.92;89.90;101360.58;1776793;79;20218;-76
2021/01/05 12:01:08;;;;;;;;;;;;;;;5.94;90.02;101390.99;1772080;79;20191;-75
2021/01/05 12:03:40;;;;;;;;;;;;;;;5.94;90.03;101368.95;1804782;79;20232;-75
2021/01/05 12:06:14;;;;;;;;;;;;;;;5.97;90.15;101384.18;1775775;79;20213;-76
2021/01/05 12:08:45;;;;;;;;;;;;;;;6.08;90.33;101395.94;1804500;79;20249;-74
2021/01/05 12:11:28;;;;;;;;;;;;;;;6.16;90.15;101392.98;1782258;79;20189;-73
2021/01/05 12:14:01;;;;;;;;;;;;;;;6.17;89.93;101388.60;1748215;81;20217;-74
2021/01/05 12:16:35;;;;;;;;;;;;;;;6.18;89.84;101390.30;1729492;82;20341;-74
2021/01/05 12:19:11;;;;;;;;;;;;;;;6.19;89.75;101389.77;1714096;83;20179;-74
2021/01/05 12:21:43;;;;;;;;;;;;;;;6.17;89.65;101373.45;1709800;82;20258;-75
2021/01/05 12:24:17;;;;;;;;;;;;;;;6.17;89.75;101383.64;1732147;82;20522;-73
2021/01/05 12:26:51;;;;;;;;;;;;;;;6.14;89.77;101388.19;1718089;82;20182;-74
2021/01/05 12:29:30;;;;;;;;;;;;;;;6.12;89.79;101388.95;1721433;82;20185;-75
2021/01/05 12:32:12;;;;;;;;;;;;;;;6.13;89.89;101374.09;1726539;82;20235;-74
2021/01/05 12:34:46;;;;;;;;;;;;;;;6.16;90.02;101373.69;1729395;82;20337;-75
2021/01/05 12:37:20;;;;;;;;;;;;;;;6.17;90.02;101362.97;1778346;79;20189;-75
2021/01/05 12:39:51;;;;;;;;;;;;;;;6.15;90.06;101354.91;1776254;79;20169;-73
2021/01/05 12:42:26;;;;;;;;;;;;;;;6.15;90.22;101352.67;1807171;79;20288;-74
2021/01/05 12:44:57;;;;;;;;;;;;;;;6.20;90.28;101370.80;1776666;79;20224;-74
2021/01/05 12:47:29;;;;;;;;;;;;;;;6.22;90.19;101365.93;1781908;79;20220;-74
2021/01/05 12:50:02;;;;;;;;;;;;;;;6.24;90.23;101356.91;1797939;79;20277;-75
2021/01/05 12:52:36;;;;;;;;;;;;;;;6.23;90.25;101367.62;1768874;79;20218;-74
2021/01/05 12:55:08;;;;;;;;;;;;;;;6.23;90.25;101352.45;1748683;80;20187;-75
2021/01/05 12:57:40;;;;;;;;;;;;;;;6.21;90.28;101331.13;1774198;79;20323;-75
2021/01/05 13:00:13;;;;;;;;;;;;;;;6.23;90.47;101331.23;1768774;79;20261;-75
2021/01/05 13:02:45;;;;;;;;;;;;;;;6.23;90.41;101320.75;1759080;80;20259;-75
2021/01/05 13:05:21;;;;;;;;;;;;;;;6.25;90.53;101303.45;1743933;80;20168;-74
2021/01/05 13:08:00;;;;;;;;;;;;;;;6.23;90.45;101306.42;1738535;81;20172;-75
2021/01/05 13:10:32;;;;;;;;;;;;;;;6.25;90.51;101312.59;1761374;80;20219;-76
2021/01/05 13:13:04;;;;;;;;;;;;;;;6.25;90.54;101316.72;1731689;82;20190;-76
2021/01/05 13:15:39;;;;;;;;;;;;;;;6.25;90.60;101308.97;1758819;80;20227;-77
2021/01/05 13:18:11;;;;;;;;;;;;;;;6.24;90.60;101318.30;1775022;80;20247;-75
2021/01/05 13:20:43;;;;;;;;;;;;;;;6.23;90.68;101306.97;1757717;81;20183;-75
2021/01/05 13:23:14;;;;;;;;;;;;;;;6.24;90.77;101323.82;1768004;81;20192;-75
2021/01/05 13:25:46;;;;;;;;;;;;;;;6.26;90.87;101273.44;1762157;80;20176;-77
2021/01/05 13:28:17;;;;;;;;;;;;;;;6.30;90.92;101278.84;1760838;80;20226;-77
2021/01/05 13:30:49;;;;;;;;;;;;;;;6.30;90.89;101292.08;1743229;81;20223;-76
2021/01/05 13:33:21;;;;;;;;;;;;;;;6.28;90.87;101286.50;1768984;80;20260;-76
2021/01/05 13:35:52;;;;;;;;;;;;;;;6.29;90.96;101318.51;1773129;80;20580;-74